Time;durP1;ratioP1;P1;durP2;ratioP2;P2;SDS_P1;SDS_P2;PMS_P1;PMS_P2;Temp;Humidity;BMP_temperature;BMP_pressure;BME280_temperature;BME280_humidity;BME280_pressure;Samples;Min_cycle;Max_cycle;Signal;HPM_P1;HPM_P2
2021/10/22 00:02:15;;;;;;;54.67;44.30;;;;;;;11.23;78.70;101413.22;6121418;23;20637;-63
2021/10/22 00:04:41;;;;;;;54.23;46.17;;;;;;;11.16;79.64;101413.34;6120346;23;20562;-63
2021/10/22 00:07:06;;;;;;;56.50;47.30;;;;;;;11.19;79.86;101420.84;6122291;23;20185;-63
2021/10/22 00:09:32;;;;;;;56.10;45.13;;;;;;;11.24;80.00;101417.59;6121974;23;20153;-63
2021/10/22 00:11:58;;;;;;;50.73;43.20;;;;;;;10.76;79.72;101331.06;6121949;23;20162;-64
2021/10/22 00:14:23;;;;;;;54.30;45.60;;;;;;;10.88;78.99;101351.91;6122030;23;20539;-64
2021/10/22 00:16:49;;;;;;;66.43;50.33;;;;;;;11.34;79.29;101413.09;6121953;23;20162;-63
2021/10/22 00:19:14;;;;;;;55.70;45.43;;;;;;;11.39;78.62;101416.19;6121905;23;20157;-63
2021/10/22 00:21:41;;;;;;;60.63;47.07;;;;;;;11.47;78.23;101414.88;6121511;23;20644;-63
2021/10/22 00:24:06;;;;;;;54.20;44.23;;;;;;;11.09;77.55;101352.41;6121906;23;20157;-64
2021/10/22 00:26:32;;;;;;;56.80;47.93;;;;;;;11.21;77.80;101371.25;6121697;23;20153;-64
2021/10/22 00:28:58;;;;;;;57.37;49.30;;;;;;;10.89;78.31;101329.31;6121741;23;20172;-63
2021/10/22 00:31:24;;;;;;;56.53;47.07;;;;;;;11.64;78.09;101401.97;6120928;23;20248;-63
2021/10/22 00:33:50;;;;;;;63.27;51.90;;;;;;;11.30;78.14;101348.53;6121948;23;20173;-63
2021/10/22 00:36:16;;;;;;;58.33;49.97;;;;;;;11.62;78.23;101379.38;6121951;23;20271;-64
2021/10/22 00:38:42;;;;;;;58.90;49.73;;;;;;;11.80;77.79;101397.34;6121445;23;20150;-63
2021/10/22 00:41:08;;;;;;;60.63;49.67;;;;;;;11.84;77.62;101389.69;6121587;23;20198;-64
2021/10/22 00:43:33;;;;;;;73.70;55.33;;;;;;;11.81;78.21;101398.91;6121965;23;20202;-63
2021/10/22 00:46:00;;;;;;;69.63;53.70;;;;;;;11.44;79.29;101354.66;6121859;23;20170;-63
2021/10/22 00:48:26;;;;;;;64.80;53.23;;;;;;;11.32;79.19;101318.38;6119804;23;20198;-63
2021/10/22 00:50:58;;;;;;;62.70;50.70;;;;;;;11.86;78.48;101401.19;6121043;23;20181;-63
2021/10/22 00:53:27;;;;;;;57.90;49.80;;;;;;;11.93;77.86;101394.75;6121781;23;20153;-63
2021/10/22 00:55:53;;;;;;;61.23;50.17;;;;;;;12.00;77.29;101391.81;6121933;23;20668;-63
2021/10/22 00:58:21;;;;;;;60.20;48.60;;;;;;;11.66;76.79;101350.34;6121640;23;20579;-63
2021/10/22 01:00:47;;;;;;;56.03;47.63;;;;;;;11.47;76.76;101312.16;6120846;23;20161;-63
2021/10/22 01:03:13;;;;;;;55.50;48.43;;;;;;;11.96;76.55;101402.22;6121380;23;20158;-63
2021/10/22 01:05:39;;;;;;;59.77;49.40;;;;;;;11.74;76.84;101387.88;6121797;23;20398;-63
2021/10/22 01:08:06;;;;;;;55.23;47.80;;;;;;;11.93;76.73;101408.63;6121543;23;20213;-63
2021/10/22 01:10:33;;;;;;;55.37;47.47;;;;;;;11.76;76.48;101396.59;6121116;23;20154;-63
2021/10/22 01:12:59;;;;;;;56.27;47.13;;;;;;;11.84;76.90;101419.47;6120655;23;20161;-63
2021/10/22 01:15:25;;;;;;;53.03;45.47;;;;;;;11.31;76.14;101323.13;6121431;23;20174;-63
2021/10/22 01:17:51;;;;;;;58.97;47.07;;;;;;;11.83;77.18;101421.47;6121774;23;20147;-64
2021/10/22 01:20:19;;;;;;;55.00;46.83;;;;;;;11.78;76.97;101415.63;6121269;23;20532;-63
2021/10/22 01:22:47;;;;;;;58.80;47.80;;;;;;;11.86;76.79;101415.09;6120830;23;20485;-63
2021/10/22 01:25:15;;;;;;;57.77;47.40;;;;;;;11.81;76.99;101411.97;6121569;23;20163;-63
2021/10/22 01:27:42;;;;;;;58.37;46.87;;;;;;;11.74;76.89;101423.97;6121114;23;20269;-63
2021/10/22 01:30:13;;;;;;;52.77;44.53;;;;;;;11.79;76.87;101431.84;6121028;23;20162;-63
2021/10/22 01:32:40;;;;;;;52.10;44.77;;;;;;;11.80;76.77;101432.63;6120567;23;20660;-63
2021/10/22 01:35:07;;;;;;;62.80;51.97;;;;;;;11.85;78.12;101429.38;6121131;23;20154;-64
2021/10/22 01:37:33;;;;;;;68.57;54.97;;;;;;;11.38;78.63;101392.38;6120983;23;20147;-63
2021/10/22 01:39:59;;;;;;;59.33;49.23;;;;;;;11.46;78.32;101368.09;6120809;23;20154;-63
2021/10/22 01:42:25;;;;;;;59.03;47.40;;;;;;;11.88;77.59;101412.66;6120817;23;20202;-63
2021/10/22 01:44:51;;;;;;;60.67;50.30;;;;;;;11.94;77.43;101424.84;6121450;23;20600;-63
2021/10/22 01:47:17;;;;;;;57.73;48.97;;;;;;;11.91;76.76;101402.69;6121369;23;20185;-62
2021/10/22 01:49:43;;;;;;;60.30;50.50;;;;;;;11.33;76.85;101306.84;6118852;23;20188;-63
2021/10/22 01:52:09;;;;;;;57.63;46.07;;;;;;;11.87;76.33;101388.06;6120867;23;20636;-63
2021/10/22 01:54:35;;;;;;;57.83;48.17;;;;;;;11.81;75.57;101414.75;6121162;23;20153;-63
2021/10/22 01:57:01;;;;;;;59.87;46.57;;;;;;;11.92;76.45;101416.16;6119593;23;20231;-63
2021/10/22 01:59:26;;;;;;;59.30;46.63;;;;;;;11.50;75.44;101335.53;6120784;23;20158;-63
2021/10/22 02:01:53;;;;;;;50.10;41.13;;;;;;;11.99;74.75;101390.25;6119101;23;20229;-63
2021/10/22 02:04:18;;;;;;;48.33;41.27;;;;;;;12.07;74.32;101406.38;6121007;23;20532;-63
2021/10/22 02:06:44;;;;;;;46.87;41.40;;;;;;;12.12;74.37;101393.97;6121233;23;20423;-63
2021/10/22 02:09:10;;;;;;;46.53;38.47;;;;;;;11.95;73.43;101390.31;6119664;23;20236;-63
2021/10/22 02:11:35;;;;;;;50.23;41.77;;;;;;;11.91;73.97;101403.50;6120573;23;20150;-63
2021/10/22 02:14:01;;;;;;;48.70;41.47;;;;;;;12.00;74.31;101406.47;6120893;23;20225;-63
2021/10/22 02:16:26;;;;;;;75.67;42.57;;;;;;;12.03;73.88;101408.44;6121178;23;20681;-63
2021/10/22 02:18:52;;;;;;;56.80;41.37;;;;;;;12.03;73.78;101407.63;6121283;23;20164;-63
2021/10/22 02:21:18;;;;;;;55.17;39.70;;;;;;;12.03;72.89;101418.75;6120934;23;20161;-63
2021/10/22 02:23:43;;;;;;;59.83;38.27;;;;;;;12.00;72.67;101430.72;6121178;23;20180;-63
2021/10/22 02:26:09;;;;;;;41.60;34.17;;;;;;;11.54;71.58;101403.66;6121063;23;20158;-63
2021/10/22 02:28:34;;;;;;;44.83;35.80;;;;;;;11.61;70.92;101438.88;6121093;23;20220;-63
2021/10/22 02:31:00;;;;;;;43.77;37.07;;;;;;;11.53;70.56;101443.72;6118099;23;20264;-63
2021/10/22 02:33:25;;;;;;;37.87;33.47;;;;;;;11.51;70.23;101448.91;6121206;23;20472;-63
2021/10/22 02:35:51;;;;;;;41.07;36.17;;;;;;;11.43;70.31;101441.13;6121234;23;20157;-63
2021/10/22 02:38:17;;;;;;;44.83;37.23;;;;;;;10.58;70.29;101330.53;6121002;23;20154;-62
2021/10/22 02:40:43;;;;;;;45.47;39.27;;;;;;;11.32;70.89;101449.56;6120479;23;20154;-63
2021/10/22 02:43:08;;;;;;;50.87;38.97;;;;;;;11.25;70.57;101457.19;6120685;23;20158;-63
2021/10/22 02:45:34;;;;;;;46.83;38.80;;;;;;;11.07;71.14;101449.13;6121523;23;20232;-63
2021/10/22 02:47:59;;;;;;;46.33;39.87;;;;;;;11.11;71.66;101455.41;6121216;23;20188;-63
2021/10/22 02:50:25;;;;;;;49.30;40.57;;;;;;;10.90;72.28;101447.34;6121912;23;20192;-63
2021/10/22 02:52:51;;;;;;;48.53;41.00;;;;;;;10.92;72.62;101453.25;6122411;23;20514;-63
2021/10/22 02:55:17;;;;;;;50.00;41.57;;;;;;;10.75;73.08;101454.25;6122659;23;20161;-63
2021/10/22 02:57:43;;;;;;;49.23;40.33;;;;;;;10.14;73.10;101380.50;6123007;23;20228;-63
2021/10/22 03:00:11;;;;;;;50.33;40.27;;;;;;;10.26;73.03;101396.59;6122300;23;20241;-63
2021/10/22 03:02:36;;;;;;;53.80;39.57;;;;;;;10.25;72.94;101403.34;6122085;23;20676;-63
2021/10/22 03:05:02;;;;;;;53.57;40.97;;;;;;;10.69;73.25;101467.00;6122884;23;20185;-63
2021/10/22 03:07:28;;;;;;;46.93;40.23;;;;;;;10.70;73.06;101467.78;6122945;23;20553;-63
2021/10/22 03:09:53;;;;;;;54.03;42.57;;;;;;;10.40;73.37;101435.25;6122449;23;20159;-63
2021/10/22 03:12:19;;;;;;;51.13;42.03;;;;;;;10.49;73.87;101481.84;6122067;23;20164;-63
2021/10/22 03:14:45;;;;;;;49.10;41.03;;;;;;;10.47;73.51;101482.28;6122832;23;20187;-63
2021/10/22 03:17:10;;;;;;;53.30;44.03;;;;;;;10.58;74.92;101484.94;6122609;23;20172;-63
2021/10/22 03:19:36;;;;;;;55.93;42.27;;;;;;;10.49;74.77;101482.66;6122233;23;20151;-63
2021/10/22 03:22:01;;;;;;;50.97;43.50;;;;;;;10.38;74.72;101453.47;6122146;23;20160;-63
2021/10/22 03:24:27;;;;;;;55.33;44.10;;;;;;;10.55;74.93;101486.56;6122569;23;20498;-63
2021/10/22 03:26:52;;;;;;;56.03;44.40;;;;;;;10.61;75.01;101484.91;6122622;23;20203;-63
2021/10/22 03:29:19;;;;;;;54.60;43.87;;;;;;;10.63;74.91;101496.38;6122194;23;20155;-63
2021/10/22 03:31:45;;;;;;;52.30;43.07;;;;;;;10.09;74.76;101400.34;6121835;23;20210;-63
2021/10/22 03:34:10;;;;;;;57.13;46.03;;;;;;;10.42;75.61;101459.78;6122628;23;20183;-63
2021/10/22 03:36:37;;;;;;;54.57;45.37;;;;;;;10.67;76.09;101505.44;6122652;23;20160;-63
2021/10/22 03:39:03;;;;;;;55.90;46.63;;;;;;;10.77;76.79;101504.53;6122037;23;20155;-63
2021/10/22 03:41:29;;;;;;;55.77;46.37;;;;;;;10.85;76.99;101505.25;6121988;23;20240;-63
2021/10/22 03:43:54;;;;;;;55.17;44.57;;;;;;;10.87;76.36;101511.19;6122564;23;20186;-63
2021/10/22 03:46:20;;;;;;;55.90;46.07;;;;;;;10.57;76.35;101467.56;6122498;23;20154;-63
2021/10/22 03:48:45;;;;;;;57.93;45.47;;;;;;;10.87;76.39;101513.94;6121955;23;20185;-63
2021/10/22 03:51:12;;;;;;;53.40;44.57;;;;;;;10.70;76.29;101487.19;6122105;23;20162;-63
2021/10/22 03:53:38;;;;;;;53.57;44.80;;;;;;;10.91;76.42;101515.47;6122800;23;20176;-63
2021/10/22 03:56:04;;;;;;;59.70;48.10;;;;;;;9.94;77.10;101409.16;6122396;23;20499;-62
2021/10/22 03:58:30;;;;;;;55.17;43.43;;;;;;;10.71;76.59;101527.59;6122453;23;20157;-62
2021/10/22 04:00:55;;;;;;;57.07;46.63;;;;;;;10.83;76.95;101507.66;6121249;23;20550;-62
2021/10/22 04:03:21;;;;;;;57.67;48.47;;;;;;;10.37;76.76;101451.91;6120829;23;20165;-63
2021/10/22 04:05:46;;;;;;;59.53;47.03;;;;;;;10.08;76.78;101400.75;6122279;23;20164;-62
2021/10/22 04:08:12;;;;;;;56.57;46.60;;;;;;;10.53;77.56;101475.09;6122053;23;20527;-62
2021/10/22 04:10:41;;;;;;;59.10;48.17;;;;;;;10.93;77.91;101523.38;6121806;23;20155;-62
2021/10/22 04:13:11;;;;;;;60.53;47.50;;;;;;;10.39;78.24;101427.34;6121313;23;20441;-62
2021/10/22 04:15:38;;;;;;;56.03;45.93;;;;;;;10.72;77.34;101468.94;6122433;23;20641;-62
2021/10/22 04:18:04;;;;;;;50.97;42.43;;;;;;;11.06;76.61;101516.13;6121801;23;20637;-62
2021/10/22 04:20:30;;;;;;;52.87;42.83;;;;;;;10.70;75.67;101459.47;6121674;23;20162;-62
2021/10/22 04:22:58;;;;;;;52.20;42.83;;;;;;;11.02;76.30;101513.38;6121793;23;20619;-62
2021/10/22 04:25:24;;;;;;;50.50;42.80;;;;;;;10.67;75.90;101449.22;6122194;23;20153;-63
2021/10/22 04:27:49;;;;;;;57.00;41.30;;;;;;;11.05;75.40;101511.75;6121928;23;20727;-62
2021/10/22 04:30:15;;;;;;;49.60;41.47;;;;;;;10.75;75.40;101450.69;6120210;23;20157;-62
2021/10/22 04:32:40;;;;;;;53.73;41.50;;;;;;;10.97;74.68;101497.19;6121154;23;20209;-62
2021/10/22 04:35:06;;;;;;;60.77;42.87;;;;;;;11.12;74.40;101520.00;6121870;23;20300;-62
2021/10/22 04:42:47;;;;;;;62.23;41.33;;;;;;;10.88;73.68;101502.47;6121341;23;20182;-63
2021/10/22 04:45:15;;;;;;;58.93;42.10;;;;;;;10.91;73.25;101507.16;6122254;23;20145;-63
2021/10/22 04:47:41;;;;;;;60.13;41.53;;;;;;;10.94;73.12;101517.44;6121903;23;20152;-62
2021/10/22 04:50:09;;;;;;;66.47;40.20;;;;;;;10.93;73.12;101512.28;6115301;23;20215;-63
2021/10/22 04:52:35;;;;;;;55.90;37.87;;;;;;;10.92;72.69;101521.81;6117386;23;20151;-62
2021/10/22 04:55:02;;;;;;;61.23;39.47;;;;;;;10.85;72.53;101502.47;6112508;23;20541;-62
2021/10/22 04:57:27;;;;;;;61.43;40.90;;;;;;;10.35;73.11;101454.31;6114957;23;20185;-62
2021/10/22 04:59:53;;;;;;;66.37;42.40;;;;;;;10.68;73.37;101501.47;6106906;23;20249;-62
2021/10/22 05:02:19;;;;;;;56.53;39.10;;;;;;;10.79;72.78;101507.69;6116306;23;20165;-65
2021/10/22 05:04:44;;;;;;;65.40;39.57;;;;;;;10.46;72.47;101466.84;6118493;23;20639;-64
2021/10/22 05:07:10;;;;;;;47.63;35.40;;;;;;;10.70;72.19;101512.13;6099639;23;20164;-66
2021/10/22 05:09:35;;;;;;;53.77;37.13;;;;;;;10.56;72.58;101515.84;6115431;23;20223;-65
2021/10/22 05:12:05;;;;;;;61.50;47.17;;;;;;;10.61;74.96;101517.41;6115256;23;20615;-64
2021/10/22 05:14:32;;;;;;;61.10;50.37;;;;;;;10.35;76.04;101454.31;6114405;23;20162;-65
2021/10/22 05:16:58;;;;;;;64.20;47.57;;;;;;;10.77;75.47;101512.84;6117350;23;20207;-65
2021/10/22 05:19:23;;;;;;;51.00;38.73;;;;;;;10.35;73.93;101441.22;6117319;23;20191;-64
2021/10/22 05:21:49;;;;;;;50.83;35.63;;;;;;;10.88;73.42;101523.84;6118964;23;20167;-65
2021/10/22 05:24:14;;;;;;;56.40;43.27;;;;;;;10.93;74.20;101538.06;6118425;23;20558;-65
2021/10/22 05:26:40;;;;;;;51.13;40.37;;;;;;;10.79;74.78;101481.94;6118689;23;20333;-65
2021/10/22 05:29:05;;;;;;;57.30;40.17;;;;;;;11.16;73.87;101540.16;6118520;23;20192;-64
2021/10/22 05:31:31;;;;;;;57.43;37.57;;;;;;;11.09;73.15;101521.63;6117820;23;20609;-65
2021/10/22 05:33:56;;;;;;;59.67;37.93;;;;;;;11.20;73.04;101549.22;6119252;23;20551;-65
2021/10/22 05:36:23;;;;;;;54.33;37.13;;;;;;;11.38;73.19;101547.81;6119305;23;20706;-65
2021/10/22 05:38:51;;;;;;;57.67;37.23;;;;;;;11.43;73.12;101558.44;6116754;23;20724;-65
2021/10/22 05:41:16;;;;;;;65.00;36.53;;;;;;;11.55;72.87;101557.91;6114097;23;20687;-65
2021/10/22 05:43:42;;;;;;;67.20;36.57;;;;;;;11.32;72.97;101516.16;6118648;23;20620;-65
2021/10/22 05:46:07;;;;;;;62.50;37.27;;;;;;;11.58;72.70;101550.75;6118640;23;20162;-65
2021/10/22 05:48:33;;;;;;;65.87;43.03;;;;;;;11.60;73.86;101540.81;6117485;23;20605;-64
2021/10/22 05:51:00;;;;;;;51.87;41.07;;;;;;;11.94;74.88;101569.28;6118555;23;20581;-65
2021/10/22 05:53:26;;;;;;;56.40;39.37;;;;;;;12.07;75.00;101573.06;6118225;23;20157;-65
2021/10/22 05:55:52;;;;;;;55.57;40.87;;;;;;;11.75;74.23;101514.44;6116880;23;20248;-64
2021/10/22 05:58:17;;;;;;;53.20;42.93;;;;;;;12.36;75.74;101584.53;6118151;23;20220;-65
2021/10/22 06:00:43;;;;;;;57.53;44.60;;;;;;;12.48;75.82;101583.94;6111700;23;20170;-64
2021/10/22 06:03:09;;;;;;;58.07;42.73;;;;;;;12.59;75.42;101590.09;6114902;23;20181;-64
2021/10/22 06:05:39;;;;;;;55.40;44.77;;;;;;;12.22;76.20;101548.63;6116280;23;20174;-64
2021/10/22 06:08:05;;;;;;;53.07;44.33;;;;;;;12.77;76.74;101590.59;6116327;23;20150;-64
2021/10/22 06:10:30;;;;;;;55.50;44.43;;;;;;;12.93;75.56;101594.28;6114573;23;20162;-64
2021/10/22 06:12:56;;;;;;;54.10;42.43;;;;;;;12.73;75.07;101532.25;6118789;23;20510;-64
2021/10/22 06:15:22;;;;;;;54.83;42.43;;;;;;;13.22;75.58;101583.44;6118140;23;20181;-64
2021/10/22 06:17:47;;;;;;;50.43;42.20;;;;;;;13.34;75.42;101591.16;6117992;23;20178;-64
2021/10/22 06:20:24;;;;;;;49.47;41.20;;;;;;;13.16;75.33;101543.41;6115677;23;20166;-65
2021/10/22 06:25:35;;;;;;;48.97;39.30;;;;;;;13.50;75.03;101572.53;6120041;23;20661;-64
2021/10/22 06:28:01;;;;;;;48.37;40.80;;;;;;;13.82;75.04;101603.25;6119852;23;20155;-64
2021/10/22 06:30:27;;;;;;;47.60;39.13;;;;;;;13.86;74.73;101605.97;6118128;23;20213;-64
2021/10/22 06:32:52;;;;;;;43.03;38.20;;;;;;;13.45;75.04;101558.31;6119995;23;20608;-65
2021/10/22 06:35:18;;;;;;;48.20;40.47;;;;;;;13.55;76.39;101608.22;6119598;23;20214;-65
2021/10/22 06:37:43;;;;;;;46.27;40.97;;;;;;;12.59;76.29;101456.63;6113902;23;20207;-65
2021/10/22 06:40:10;;;;;;;47.30;41.07;;;;;;;13.60;76.24;101623.63;6119479;23;20684;-65
2021/10/22 06:42:35;;;;;;;46.23;40.10;;;;;;;13.76;75.84;101629.25;6119849;23;20239;-65
2021/10/22 06:45:01;;;;;;;46.37;41.13;;;;;;;13.83;75.13;101624.34;6119953;23;20712;-65
2021/10/22 06:47:26;;;;;;;42.37;37.67;;;;;;;13.88;75.00;101609.91;6119463;23;20670;-65
2021/10/22 06:49:52;;;;;;;44.60;39.37;;;;;;;13.92;74.74;101591.09;6119391;23;20517;-65
2021/10/22 06:52:17;;;;;;;42.40;37.57;;;;;;;14.22;73.89;101621.50;6119133;23;20160;-65
2021/10/22 06:54:43;;;;;;;40.90;36.47;;;;;;;14.26;74.09;101640.94;6119589;23;20169;-65
2021/10/22 06:57:08;;;;;;;44.77;38.70;;;;;;;14.19;74.42;101636.31;6118947;23;20278;-65
2021/10/22 06:59:33;;;;;;;43.57;38.23;;;;;;;13.71;75.00;101580.44;6119818;23;20408;-65
2021/10/22 07:01:59;;;;;;;45.60;37.87;;;;;;;14.31;74.93;101655.16;6115992;23;20244;-65
2021/10/22 07:04:25;;;;;;;42.70;38.07;;;;;;;14.44;74.56;101649.69;6119518;23;20151;-65
2021/10/22 07:09:34;;;;;;;47.57;40.57;;;;;;;14.18;73.82;101590.09;6117924;23;20433;-65
2021/10/22 07:12:00;;;;;;;45.90;38.90;;;;;;;14.56;74.02;101654.56;6114450;23;20419;-65
2021/10/22 07:14:28;;;;;;;43.27;38.63;;;;;;;14.71;74.17;101650.22;6115705;23;20152;-65
2021/10/22 07:16:53;;;;;;;44.20;39.40;;;;;;;14.74;74.14;101655.72;6118825;23;20158;-65
2021/10/22 07:19:19;;;;;;;44.97;39.60;;;;;;;14.48;73.96;101598.19;6119756;23;20159;-64
2021/10/22 07:21:49;;;;;;;43.10;38.40;;;;;;;14.98;73.24;101659.91;6118769;23;20254;-65
2021/10/22 07:24:23;;;;;;;43.93;39.17;;;;;;;14.72;72.83;101637.84;6118574;23;20605;-64
2021/10/22 07:26:49;;;;;;;44.70;40.00;;;;;;;14.56;73.36;101605.13;6116447;23;20388;-64
2021/10/22 07:29:16;;;;;;;43.77;39.13;;;;;;;15.02;72.77;101640.25;6119717;23;20430;-65
2021/10/22 07:31:41;;;;;;;43.40;38.70;;;;;;;14.97;71.94;101596.13;6118149;23;20588;-65
2021/10/22 07:34:08;;;;;;;41.87;37.27;;;;;;;15.59;71.36;101659.88;6119779;23;20193;-65
2021/10/22 07:36:33;;;;;;;45.80;40.80;;;;;;;15.65;71.39;101669.28;6118814;23;20244;-64
2021/10/22 07:38:59;;;;;;;48.23;39.87;;;;;;;15.25;70.99;101600.94;6118955;23;20196;-65
2021/10/22 07:41:25;;;;;;;46.13;40.40;;;;;;;15.70;70.95;101655.56;6118515;23;20662;-65
2021/10/22 07:43:50;;;;;;;46.53;41.63;;;;;;;15.77;70.74;101662.97;6119400;23;20321;-64
2021/10/22 07:46:16;;;;;;;45.67;39.20;;;;;;;15.41;70.39;101609.28;6120030;23;20160;-65
2021/10/22 07:48:44;;;;;;;45.43;40.43;;;;;;;15.87;70.38;101678.63;6118350;23;20614;-65
2021/10/22 07:51:10;;;;;;;47.47;38.37;;;;;;;15.79;69.89;101677.28;6119052;23;20169;-65
2021/10/22 07:53:35;;;;;;;47.10;38.57;;;;;;;15.77;69.77;101679.75;6118635;23;20212;-64
2021/10/22 07:56:01;;;;;;;51.33;39.60;;;;;;;16.07;70.03;101676.44;6118789;23;20157;-64
2021/10/22 07:58:26;;;;;;;47.97;38.73;;;;;;;16.00;69.72;101652.28;6118260;23;20186;-64
2021/10/22 08:00:53;;;;;;;44.27;39.57;;;;;;;16.17;70.86;101680.94;6116209;23;20236;-64
2021/10/22 08:03:18;;;;;;;41.60;37.20;;;;;;;16.09;70.10;101679.59;6119096;23;20661;-65
2021/10/22 08:05:44;;;;;;;38.33;33.73;;;;;;;16.27;68.92;101686.22;6119534;23;20172;-65
2021/10/22 08:08:10;;;;;;;37.90;31.80;;;;;;;16.31;68.08;101683.31;6118464;23;20176;-64
2021/10/22 08:10:36;;;;;;;37.67;30.10;;;;;;;16.38;68.10;101675.47;6116701;23;20570;-64
2021/10/22 08:13:04;;;;;;;35.60;29.23;;;;;;;16.57;68.19;101682.13;6119185;23;20163;-64
2021/10/22 08:15:30;;;;;;;32.70;27.10;;;;;;;16.57;67.79;101659.72;6118681;23;20165;-64
2021/10/22 08:17:55;;;;;;;29.33;25.73;;;;;;;16.87;67.30;101673.13;6118712;23;20636;-64
2021/10/22 08:20:23;;;;;;;30.13;24.30;;;;;;;17.02;66.54;101675.03;6118164;23;20181;-64
2021/10/22 08:22:50;;;;;;;26.70;23.57;;;;;;;17.21;66.17;101668.34;6119146;23;20590;-64
2021/10/22 08:25:17;;;;;;;30.37;22.60;;;;;;;17.34;65.78;101668.31;6118593;23;20153;-65
2021/10/22 08:27:46;;;;;;;26.70;22.50;;;;;;;17.35;65.56;101675.47;6117292;23;20645;-65
2021/10/22 08:30:16;;;;;;;32.43;22.43;;;;;;;17.52;65.10;101658.06;6117670;23;20168;-65
2021/10/22 08:32:43;;;;;;;26.03;21.07;;;;;;;17.55;64.78;101658.41;6119119;23;20198;-65
2021/10/22 08:35:09;;;;;;;27.87;21.73;;;;;;;17.50;64.99;101648.53;6117994;23;20393;-65
2021/10/22 08:37:36;;;;;;;25.73;22.13;;;;;;;17.63;65.15;101678.09;6118631;23;20178;-65
2021/10/22 08:40:04;;;;;;;33.90;21.20;;;;;;;17.55;64.86;101673.19;6117892;23;20185;-65
2021/10/22 08:42:29;;;;;;;29.43;19.60;;;;;;;17.51;64.51;101674.56;6118061;23;20148;-65
2021/10/22 08:44:56;;;;;;;13.97;9.17;;;;;;;17.62;63.92;101678.56;6118976;23;20150;-65
2021/10/22 08:47:29;;;;;;;22.07;16.43;;;;;;;17.60;64.01;101671.84;6117937;23;20490;-63
2021/10/22 08:50:00;;;;;;;24.43;16.23;;;;;;;17.48;64.49;101672.66;6118322;23;20214;-63
2021/10/22 08:52:26;;;;;;;27.43;17.10;;;;;;;17.56;64.67;101673.97;6117614;23;20151;-63
2021/10/22 08:54:53;;;;;;;23.60;17.43;;;;;;;17.54;64.83;101666.03;6119407;23;20154;-63
2021/10/22 08:57:18;;;;;;;22.83;16.60;;;;;;;17.59;65.27;101668.25;6117669;23;20281;-63
2021/10/22 08:59:44;;;;;;;24.00;16.30;;;;;;;17.28;64.86;101605.69;6118549;23;20248;-64
2021/10/22 09:02:28;;;;;;;25.77;16.93;;;;;;;17.90;64.84;101669.09;6115638;23;20650;-63
2021/10/22 09:04:59;;;;;;;24.80;16.80;;;;;;;17.91;64.44;101664.28;6118691;23;20136;-63
2021/10/22 09:07:46;;;;;;;21.23;16.23;;;;;;;17.96;63.71;101660.88;6118051;23;20204;-63
2021/10/22 09:10:33;;;;;;;21.77;15.60;;;;;;;18.14;63.59;101662.53;6111398;23;20173;-64
2021/10/22 09:13:06;;;;;;;22.63;15.67;;;;;;;18.35;63.37;101658.16;6118048;23;20166;-63
2021/10/22 09:15:42;;;;;;;25.80;16.83;;;;;;;18.57;61.74;101649.69;6117188;23;20158;-63
2021/10/22 09:18:20;;;;;;;20.73;14.77;;;;;;;18.65;60.92;101648.94;6106311;23;21234;-64
2021/10/22 09:20:51;;;;;;;18.80;13.40;;;;;;;18.50;60.77;101635.91;6118021;23;20173;-63
2021/10/22 09:23:25;;;;;;;19.50;13.17;;;;;;;18.58;60.52;101597.91;6119276;23;20187;-64
2021/10/22 09:25:51;;;;;;;15.73;11.57;;;;;;;19.03;59.48;101635.25;6118860;23;20626;-64
2021/10/22 09:28:26;;;;;;;16.70;11.80;;;;;;;18.83;59.41;101583.59;6117393;23;20149;-64
2021/10/22 09:30:52;;;;;;;14.33;10.67;;;;;;;19.18;58.02;101632.66;6117854;23;20486;-64
2021/10/22 09:33:22;;;;;;;15.13;10.70;;;;;;;19.35;58.78;101634.69;6118918;23;20145;-64
2021/10/22 09:35:51;;;;;;;13.67;10.40;;;;;;;19.56;58.64;101641.41;6116594;23;20194;-63
2021/10/22 09:38:29;;;;;;;16.77;12.43;;;;;;;19.56;59.26;101618.91;6116570;23;20199;-64
2021/10/22 09:40:56;;;;;;;13.13;11.10;;;;;;;19.73;59.02;101626.56;6117683;23;20229;-64
2021/10/22 09:43:23;;;;;;;15.40;12.10;;;;;;;19.91;58.99;101637.00;6116472;23;20327;-64
2021/10/22 09:45:51;;;;;;;18.50;11.50;;;;;;;20.06;58.97;101638.66;6118317;23;20157;-64
2021/10/22 09:48:31;;;;;;;15.40;10.83;;;;;;;20.24;57.49;101609.72;6116441;23;20169;-64
2021/10/22 09:51:17;;;;;;;17.23;9.87;;;;;;;20.38;54.46;101623.09;6115219;23;20159;-64
2021/10/22 09:53:45;;;;;;;14.50;10.07;;;;;;;20.62;54.80;101604.97;6118865;23;20166;-64
2021/10/22 09:56:18;;;;;;;12.97;9.30;;;;;;;20.88;53.33;101611.69;6108355;23;20656;-64
2021/10/22 09:58:58;;;;;;;13.90;10.03;;;;;;;21.03;53.50;101606.19;6113993;23;20464;-64
2021/10/22 10:01:31;;;;;;;13.00;8.93;;;;;;;21.34;53.03;101612.19;6117606;23;20293;-64
2021/10/22 10:03:58;;;;;;;8.53;5.80;;;;;;;20.90;48.80;101538.00;6119484;23;20213;-64
2021/10/22 10:06:24;;;;;;;9.43;7.17;;;;;;;21.69;49.31;101596.22;6119084;23;20154;-65
2021/10/22 10:08:50;;;;;;;11.50;8.03;;;;;;;21.86;50.55;101595.22;6115980;23;20166;-64
2021/10/22 10:11:16;;;;;;;13.37;10.27;;;;;;;21.77;49.83;101572.00;6118199;23;20611;-64
2021/10/22 10:13:42;;;;;;;14.40;10.87;;;;;;;21.84;49.48;101588.50;6117785;23;20233;-64
2021/10/22 10:16:09;;;;;;;13.53;9.30;;;;;;;21.81;49.54;101590.25;6118657;23;20154;-64
2021/10/22 10:18:51;;;;;;;10.77;8.27;;;;;;;21.63;47.25;101530.41;6109774;23;20200;-65
2021/10/22 10:21:20;;;;;;;9.67;6.67;;;;;;;21.99;46.49;101535.66;6115399;23;20558;-64
2021/10/22 10:23:47;;;;;;;10.03;7.47;;;;;;;22.36;45.73;101573.47;6118877;23;20167;-65
2021/10/22 10:26:31;;;;;;;11.40;6.40;;;;;;;22.33;45.55;101578.06;6118467;23;20582;-64
2021/10/22 10:28:59;;;;;;;5.53;3.20;;;;;;;22.34;42.62;101565.50;6117816;23;20143;-65
2021/10/22 10:31:46;;;;;;;9.87;8.10;;;;;;;22.35;47.31;101560.59;6112756;23;20614;-65
2021/10/22 10:34:26;;;;;;;10.80;7.23;;;;;;;22.40;47.02;101559.91;6118793;23;20139;-66
2021/10/22 10:36:53;;;;;;;9.83;6.27;;;;;;;22.13;45.41;101515.88;6116345;23;20256;-65
2021/10/22 10:39:44;;;;;;;7.07;6.27;;;;;;;22.47;46.13;101556.72;6117791;23;20201;-66
2021/10/22 10:42:16;;;;;;;11.80;8.23;;;;;;;22.48;47.98;101544.94;6116898;23;20155;-66
2021/10/22 10:44:44;;;;;;;10.57;7.47;;;;;;;21.85;48.58;101446.19;6118326;23;20160;-66
2021/10/22 10:47:27;;;;;;;11.63;8.30;;;;;;;22.52;48.76;101544.72;6117696;23;20159;-66
2021/10/22 10:49:53;;;;;;;12.13;8.40;;;;;;;22.59;48.90;101539.44;6117692;23;20178;-66
2021/10/22 10:52:37;;;;;;;9.47;8.20;;;;;;;22.63;48.78;101542.78;6118631;23;20154;-66
2021/10/22 10:55:31;;;;;;;7.70;6.90;;;;;;;22.64;48.14;101535.91;6116879;23;20162;-66
2021/10/22 10:57:58;;;;;;;8.17;5.00;;;;;;;22.65;47.74;101542.31;6108894;23;20186;-66
2021/10/22 11:00:28;;;;;;;12.30;7.00;;;;;;;22.70;47.27;101538.78;6113286;23;20196;-65
2021/10/22 11:03:01;;;;;;;9.53;6.50;;;;;;;22.70;47.93;101536.75;6115657;23;20161;-65
2021/10/22 11:05:45;;;;;;;7.93;6.37;;;;;;;22.70;47.99;101533.91;6117583;23;20620;-65
2021/10/22 11:08:15;;;;;;;9.67;5.90;;;;;;;22.57;46.58;101533.47;6116949;23;20246;-64
2021/10/22 11:11:13;;;;;;;6.47;4.97;;;;;;;22.51;45.33;101529.81;6118181;23;20172;-65
2021/10/22 11:13:42;;;;;;;8.10;5.33;;;;;;;22.59;46.50;101530.16;6118257;23;20574;-64
2021/10/22 11:16:44;;;;;;;7.20;5.10;;;;;;;22.76;45.79;101525.50;6120338;23;20181;-64
2021/10/22 11:19:15;;;;;;;5.53;4.37;;;;;;;22.75;45.77;101524.72;6116651;23;20668;-64
2021/10/22 11:21:46;;;;;;;5.93;4.10;;;;;;;22.74;44.82;101514.72;6118569;23;20593;-65
2021/10/22 11:24:30;;;;;;;6.37;3.73;;;;;;;22.80;44.51;101517.59;6119250;23;20166;-64
2021/10/22 11:27:07;;;;;;;8.27;3.80;;;;;;;22.99;44.21;101513.19;6118380;23;20481;-64